Terminal Aerodrome Forecast
Issued by NWS Louisville, KY

Home | Current Version | Previous Version | Text Only | Print | Product List | Glossary On
Versions: 1 2 3 4 5 6 7 8 9 10 11 12 13 14 15 16 17 18 19 20 21 22
157
FTUS43 KLMK 281129
TAFLEX
TAF
KLEX 281129Z 2812/2912 18008KT P6SM FEW250
     FM281500 20011KT P6SM BKN060 OVC250
     FM281800 22012G17KT P6SM VCSH BKN040 OVC100
     FM282100 28008KT 5SM SHRA BR BKN022
     FM290000 31004KT 5SM BR VCSH BKN011=

USA.gov is the U.S. government's official web portal to all federal, state and local government web resources and services.